createdAt,value
2023-03-20T00:00:50.947Z,966.91
2023-03-20T00:01:50.752Z,966.87
2023-03-20T00:02:50.853Z,966.91
2023-03-20T00:03:50.866Z,966.90
2023-03-20T00:04:51.899Z,966.92
2023-03-20T00:05:50.722Z,966.95
2023-03-20T00:06:50.566Z,966.93
2023-03-20T00:07:50.704Z,966.93
2023-03-20T00:08:50.433Z,966.91
2023-03-20T00:09:50.600Z,966.93
2023-03-20T00:10:50.346Z,966.94
2023-03-20T00:11:50.308Z,966.93
2023-03-20T00:12:50.518Z,966.93
2023-03-20T00:13:50.204Z,966.96
2023-03-20T00:14:51.256Z,966.90
2023-03-20T00:15:50.170Z,967.00
2023-03-20T00:16:50.265Z,966.97
2023-03-20T00:17:50.029Z,966.91
2023-03-20T00:18:50.051Z,966.89
2023-03-20T00:19:49.941Z,966.86
2023-03-20T00:20:49.967Z,966.89
2023-03-20T00:21:50.023Z,966.92
2023-03-20T00:22:49.969Z,966.96
2023-03-20T00:23:49.774Z,966.93
2023-03-20T00:24:49.784Z,966.92
2023-03-20T00:25:49.689Z,966.93
2023-03-20T00:26:49.702Z,966.96
2023-03-20T00:27:49.618Z,966.94
2023-03-20T00:28:49.536Z,966.92
2023-03-20T00:29:49.512Z,966.96
2023-03-20T00:30:49.553Z,966.92
2023-03-20T00:31:49.512Z,966.89
2023-03-20T00:32:50.385Z,966.95
2023-03-20T00:33:49.384Z,966.90
2023-03-20T00:34:49.265Z,966.90
2023-03-20T00:35:49.247Z,966.88
2023-03-20T00:36:49.368Z,966.89
2023-03-20T00:37:49.123Z,966.87
2023-03-20T00:38:49.175Z,966.87
2023-03-20T00:39:49.059Z,966.84
2023-03-20T00:40:48.981Z,966.87
2023-03-20T00:41:49.018Z,966.82
2023-03-20T00:42:48.892Z,966.83
2023-03-20T00:43:49.000Z,966.81
2023-03-20T00:44:48.798Z,966.82
2023-03-20T00:45:49.421Z,966.82
2023-03-20T00:46:48.734Z,966.81
2023-03-20T00:47:56.712Z,966.78
2023-03-20T00:48:56.254Z,966.83
2023-03-20T00:49:56.797Z,966.79
2023-03-20T00:50:56.326Z,966.77
2023-03-20T00:51:56.387Z,966.80
2023-03-20T00:52:56.411Z,966.76
2023-03-20T00:55:28.095Z,966.79
2023-03-20T00:56:35.377Z,966.80
2023-03-20T00:57:35.905Z,966.82
2023-03-20T00:58:27.650Z,966.77
2023-03-20T00:59:35.459Z,966.82
2023-03-20T01:00:36.023Z,966.80
2023-03-20T01:01:27.638Z,966.79
2023-03-20T01:02:27.462Z,966.80
2023-03-20T01:03:35.031Z,966.75
2023-03-20T01:04:29.384Z,966.78
2023-03-20T01:05:35.738Z,966.75
2023-03-20T01:06:40.174Z,966.77
2023-03-20T01:07:27.356Z,966.76
2023-03-20T01:08:27.153Z,966.78
2023-03-20T01:09:27.189Z,966.76
2023-03-20T01:10:27.059Z,966.81
2023-03-20T01:11:27.201Z,966.81
2023-03-20T01:12:27.155Z,966.84
2023-03-20T01:13:27.110Z,966.82
2023-03-20T01:14:26.879Z,966.84
2023-03-20T01:15:26.830Z,966.80
2023-03-20T01:16:26.819Z,966.83
2023-03-20T01:17:26.930Z,966.83
2023-03-20T01:18:26.932Z,966.82
2023-03-20T01:19:26.750Z,966.81
2023-03-20T01:20:26.611Z,966.82
2023-03-20T01:21:26.557Z,966.83
2023-03-20T01:22:26.506Z,966.80
2023-03-20T01:23:26.571Z,966.82
2023-03-20T01:24:27.858Z,966.77
2023-03-20T01:25:26.632Z,966.79
2023-03-20T01:26:26.321Z,966.80
2023-03-20T01:27:26.275Z,966.78
2023-03-20T01:28:26.235Z,966.80
2023-03-20T01:29:27.243Z,966.79
2023-03-20T01:30:26.159Z,966.75
2023-03-20T01:31:27.274Z,966.82
2023-03-20T01:32:26.052Z,966.78
2023-03-20T01:33:26.013Z,966.86
2023-03-20T01:34:26.132Z,966.84
2023-03-20T01:35:25.921Z,966.82
2023-03-20T01:36:26.251Z,966.80
2023-03-20T01:37:25.824Z,966.84
2023-03-20T01:38:25.836Z,966.85
2023-03-20T01:39:25.739Z,966.83
2023-03-20T01:40:25.857Z,966.86
2023-03-20T01:41:25.678Z,966.88
2023-03-20T01:42:25.794Z,966.84
2023-03-20T01:43:25.573Z,966.86
2023-03-20T01:44:25.588Z,966.83
2023-03-20T01:45:25.456Z,966.87
2023-03-20T01:46:25.698Z,966.87
2023-03-20T01:47:25.365Z,966.89
2023-03-20T01:48:25.649Z,966.89
2023-03-20T01:49:25.320Z,966.93
2023-03-20T01:50:25.432Z,966.90
2023-03-20T01:51:25.181Z,966.89
2023-03-20T01:52:25.258Z,966.90
2023-03-20T01:53:25.095Z,966.90
2023-03-20T01:54:25.152Z,966.88
2023-03-20T01:55:25.003Z,966.87
2023-03-20T01:56:25.180Z,966.91
2023-03-20T01:57:24.918Z,966.88
2023-03-20T01:58:24.991Z,966.91
2023-03-20T01:59:24.819Z,966.88
2023-03-20T02:00:25.209Z,966.88
2023-03-20T02:01:24.757Z,966.89
2023-03-20T02:02:24.683Z,966.87
2023-03-20T02:03:24.644Z,966.84
2023-03-20T02:04:24.867Z,966.85
2023-03-20T02:05:24.669Z,966.86
2023-03-20T02:06:24.764Z,966.83
2023-03-20T02:07:24.463Z,966.84
2023-03-20T02:08:24.460Z,966.83
2023-03-20T02:09:24.366Z,966.82
2023-03-20T02:10:24.449Z,966.87
2023-03-20T02:11:24.282Z,966.86
2023-03-20T02:12:24.480Z,966.85
2023-03-20T02:13:24.190Z,966.86
2023-03-20T02:14:24.156Z,966.88
2023-03-20T02:15:24.095Z,966.89
2023-03-20T02:16:24.317Z,966.91
2023-03-20T02:17:24.009Z,966.92
2023-03-20T02:18:25.333Z,966.93
2023-03-20T02:19:23.915Z,966.91
2023-03-20T02:20:23.866Z,966.93
2023-03-20T02:21:23.830Z,966.94
2023-03-20T02:22:23.829Z,966.91
2023-03-20T02:23:23.735Z,966.99
2023-03-20T02:24:23.851Z,966.97
2023-03-20T02:25:23.652Z,966.98
2023-03-20T02:26:24.934Z,966.95
2023-03-20T02:27:23.767Z,966.96
2023-03-20T02:28:23.514Z,966.97
2023-03-20T02:29:23.689Z,966.96
2023-03-20T02:30:23.421Z,966.99
2023-03-20T02:31:23.549Z,966.94
2023-03-20T02:32:23.343Z,966.97
2023-03-20T02:33:24.527Z,966.98
2023-03-20T02:34:23.235Z,967.00
2023-03-20T02:35:23.527Z,967.00
2023-03-20T02:36:23.162Z,967.02
2023-03-20T02:37:24.148Z,967.03
2023-03-20T02:38:23.047Z,967.04
2023-03-20T02:39:23.133Z,967.02
2023-03-20T02:40:22.984Z,967.04
2023-03-20T02:41:23.097Z,967.05
2023-03-20T02:42:22.873Z,967.03
2023-03-20T02:43:22.908Z,967.04
2023-03-20T02:44:22.779Z,967.08
2023-03-20T02:45:22.869Z,967.06
2023-03-20T02:46:22.734Z,967.03
2023-03-20T02:47:22.784Z,967.05
2023-03-20T02:48:22.628Z,967.09
2023-03-20T02:49:22.553Z,967.08
2023-03-20T02:50:22.518Z,967.05
2023-03-20T02:51:22.711Z,967.06
2023-03-20T02:52:22.418Z,967.09
2023-03-20T02:53:22.910Z,967.04
2023-03-20T02:54:22.328Z,967.11
2023-03-20T02:55:22.296Z,967.09
2023-03-20T02:56:22.232Z,967.09
2023-03-20T02:57:22.344Z,967.12
2023-03-20T02:58:22.158Z,967.08
2023-03-20T02:59:22.378Z,967.10
2023-03-20T03:00:22.051Z,967.16
2023-03-20T03:01:22.045Z,967.14
2023-03-20T03:02:22.188Z,967.12
2023-03-20T03:03:22.037Z,967.14
2023-03-20T03:04:22.004Z,967.16
2023-03-20T03:05:21.845Z,967.17
2023-03-20T03:06:22.011Z,967.16
2023-03-20T03:07:21.743Z,967.21
2023-03-20T03:08:23.878Z,967.19
2023-03-20T03:09:21.652Z,967.18
2023-03-20T03:10:22.734Z,967.22
2023-03-20T03:11:21.750Z,967.21
2023-03-20T03:12:21.707Z,967.19
2023-03-20T03:13:21.465Z,967.23
2023-03-20T03:14:21.560Z,967.20
2023-03-20T03:15:21.410Z,967.24
2023-03-20T03:16:21.628Z,967.25
2023-03-20T03:17:21.306Z,967.28
2023-03-20T03:18:21.236Z,967.30
2023-03-20T03:19:21.200Z,967.26
2023-03-20T03:20:21.385Z,967.33
2023-03-20T03:21:21.294Z,967.34
2023-03-20T03:22:29.170Z,967.32
2023-03-20T03:23:21.165Z,967.40
2023-03-20T03:24:37.205Z,967.38
2023-03-20T03:25:20.922Z,967.37
2023-03-20T03:26:23.032Z,967.42
2023-03-20T03:27:29.689Z,967.41
2023-03-20T03:28:20.936Z,967.42
2023-03-20T03:29:20.745Z,967.42
2023-03-20T03:30:20.706Z,967.44
2023-03-20T03:31:20.696Z,967.44
2023-03-20T03:32:20.716Z,967.46
2023-03-20T03:33:29.228Z,967.44
2023-03-20T03:34:20.626Z,967.44
2023-03-20T03:35:20.679Z,967.48
2023-03-20T03:36:28.261Z,967.47
2023-03-20T03:37:20.496Z,967.48
2023-03-20T03:38:28.300Z,967.45
2023-03-20T03:39:28.337Z,967.45
2023-03-20T03:40:20.307Z,967.44
2023-03-20T03:41:20.274Z,967.42
2023-03-20T03:42:20.181Z,967.46
2023-03-20T03:43:20.226Z,967.42
2023-03-20T03:44:20.071Z,967.41
2023-03-20T03:45:21.264Z,967.41
2023-03-20T03:46:19.998Z,967.44
2023-03-20T03:47:20.209Z,967.42
2023-03-20T03:48:19.881Z,967.50
2023-03-20T03:49:21.089Z,967.48
2023-03-20T03:50:19.804Z,967.50
2023-03-20T03:51:19.920Z,967.51
2023-03-20T03:52:19.707Z,967.51
2023-03-20T03:53:19.747Z,967.52
2023-03-20T03:54:19.750Z,967.56
2023-03-20T03:55:19.654Z,967.56
2023-03-20T03:56:19.596Z,967.61
2023-03-20T03:57:19.687Z,967.62
2023-03-20T03:58:19.427Z,967.66
2023-03-20T03:59:19.396Z,967.69
2023-03-20T04:00:19.368Z,967.67
2023-03-20T04:01:19.489Z,967.69
2023-03-20T04:02:19.289Z,967.69
2023-03-20T04:03:19.350Z,967.68
2023-03-20T04:04:20.486Z,967.72
2023-03-20T04:05:19.138Z,967.68
2023-03-20T04:06:19.221Z,967.72
2023-03-20T04:07:19.175Z,967.69
2023-03-20T04:08:18.988Z,967.75
2023-03-20T04:09:19.092Z,967.71
2023-03-20T04:10:18.890Z,967.78
2023-03-20T04:11:18.875Z,967.78
2023-03-20T04:12:18.802Z,967.75
2023-03-20T04:13:18.913Z,967.78
2023-03-20T04:14:18.763Z,967.80
2023-03-20T04:15:18.870Z,967.79
2023-03-20T04:16:18.661Z,967.81
2023-03-20T04:17:18.786Z,967.80
2023-03-20T04:18:18.541Z,967.82
2023-03-20T04:19:20.596Z,967.81
2023-03-20T04:20:18.442Z,967.83
2023-03-20T04:21:18.507Z,967.85
2023-03-20T04:22:18.359Z,967.86
2023-03-20T04:23:18.369Z,967.86
2023-03-20T04:24:18.261Z,967.81
2023-03-20T04:25:18.386Z,967.77
2023-03-20T04:26:18.177Z,967.85
2023-03-20T04:27:18.355Z,967.86
2023-03-20T04:28:18.082Z,967.87
2023-03-20T04:29:18.294Z,967.87
2023-03-20T04:30:18.232Z,967.85
2023-03-20T04:31:17.969Z,967.89
2023-03-20T04:32:18.032Z,967.91
2023-03-20T04:33:17.855Z,967.87
2023-03-20T04:34:17.956Z,967.89
2023-03-20T04:35:18.012Z,967.91
2023-03-20T04:36:18.962Z,967.90
2023-03-20T04:37:17.679Z,967.92
2023-03-20T04:38:17.710Z,967.87
2023-03-20T04:39:17.589Z,967.87
2023-03-20T04:40:17.560Z,967.87
2023-03-20T04:41:17.683Z,967.90
2023-03-20T04:42:17.597Z,967.87
2023-03-20T04:43:17.411Z,967.90
2023-03-20T04:44:17.559Z,967.90
2023-03-20T04:45:17.329Z,967.89
2023-03-20T04:46:17.316Z,967.91
2023-03-20T04:47:17.512Z,967.87
2023-03-20T04:48:17.444Z,967.87
2023-03-20T04:49:17.155Z,967.86
2023-03-20T04:50:17.344Z,967.83
2023-03-20T04:51:17.050Z,967.82
2023-03-20T04:52:17.008Z,967.83
2023-03-20T04:53:16.963Z,967.79
2023-03-20T04:54:17.216Z,967.81
2023-03-20T04:55:16.878Z,967.79
2023-03-20T04:56:17.084Z,967.78
2023-03-20T04:57:16.779Z,967.77
2023-03-20T04:58:16.738Z,967.77
2023-03-20T04:59:16.717Z,967.72
2023-03-20T05:00:17.876Z,967.71
2023-03-20T05:01:16.636Z,967.72
2023-03-20T05:02:16.720Z,967.67
2023-03-20T05:03:16.518Z,967.67
2023-03-20T05:04:16.501Z,967.67
2023-03-20T05:05:16.526Z,967.63
2023-03-20T05:06:16.549Z,967.62
2023-03-20T05:07:16.333Z,967.58
2023-03-20T05:08:16.561Z,967.57
2023-03-20T05:09:16.247Z,967.58
2023-03-20T05:10:16.202Z,967.61
2023-03-20T05:11:16.376Z,967.58
2023-03-20T05:12:16.108Z,967.60
2023-03-20T05:13:16.119Z,967.61
2023-03-20T05:14:16.017Z,967.66
2023-03-20T05:15:16.129Z,967.63
2023-03-20T05:16:16.013Z,967.65
2023-03-20T05:17:16.089Z,967.63
2023-03-20T05:18:16.022Z,967.63
2023-03-20T05:19:15.838Z,967.64
2023-03-20T05:20:16.027Z,967.66
2023-03-20T05:21:15.717Z,967.63
2023-03-20T05:22:15.836Z,967.68
2023-03-20T05:23:15.830Z,967.69
2023-03-20T05:24:15.850Z,967.73
2023-03-20T05:25:15.532Z,967.75
2023-03-20T05:26:16.703Z,967.76
2023-03-20T05:27:15.670Z,967.77
2023-03-20T05:28:15.399Z,967.78
2023-03-20T05:29:15.503Z,967.80
2023-03-20T05:30:15.341Z,967.82
2023-03-20T05:31:16.403Z,967.84
2023-03-20T05:32:15.214Z,967.88
2023-03-20T05:33:15.189Z,967.87
2023-03-20T05:34:15.135Z,967.90
2023-03-20T05:35:15.344Z,967.88
2023-03-20T05:36:15.077Z,967.90
2023-03-20T05:37:15.140Z,967.90
2023-03-20T05:38:14.949Z,967.94
2023-03-20T05:39:14.889Z,967.91
2023-03-20T05:40:14.841Z,967.88
2023-03-20T05:41:14.880Z,967.89
2023-03-20T05:42:14.791Z,967.87
2023-03-20T05:43:14.976Z,967.85
2023-03-20T05:44:14.662Z,967.85
2023-03-20T05:45:14.617Z,967.86
2023-03-20T05:46:14.615Z,967.79
2023-03-20T05:47:14.973Z,967.83
2023-03-20T05:48:14.617Z,967.79
2023-03-20T05:49:14.434Z,967.76
2023-03-20T05:50:14.511Z,967.77
2023-03-20T05:51:14.390Z,967.79
2023-03-20T05:52:14.337Z,967.76
2023-03-20T05:53:14.397Z,967.78
2023-03-20T05:54:37.322Z,967.78
2023-03-20T05:55:14.194Z,967.79
2023-03-20T05:56:21.991Z,967.79
2023-03-20T05:57:36.379Z,967.86
2023-03-20T05:58:14.117Z,967.87
2023-03-20T05:59:15.304Z,967.89
2023-03-20T06:03:48.371Z,967.95
2023-03-20T06:04:48.409Z,967.93
2023-03-20T06:06:02.873Z,967.91
2023-03-20T06:06:48.122Z,967.93
2023-03-20T06:08:10.462Z,967.92
2023-03-20T06:08:48.026Z,967.91
2023-03-20T06:09:48.235Z,967.90
2023-03-20T06:10:47.932Z,967.86
2023-03-20T06:11:47.996Z,967.87
2023-03-20T06:12:47.852Z,967.82
2023-03-20T06:13:49.083Z,967.81
2023-03-20T06:14:47.771Z,967.83
2023-03-20T06:15:47.877Z,967.82
2023-03-20T06:16:47.661Z,967.80
2023-03-20T06:17:47.889Z,967.82
2023-03-20T06:18:47.580Z,967.86
2023-03-20T06:19:49.046Z,967.88
2023-03-20T06:20:47.498Z,967.89
2023-03-20T06:21:47.604Z,967.93
2023-03-20T06:22:47.406Z,967.95
2023-03-20T06:23:47.519Z,967.97
2023-03-20T06:24:47.325Z,967.96
2023-03-20T06:25:47.315Z,967.98
2023-03-20T06:26:47.202Z,967.95
2023-03-20T06:27:47.757Z,967.92
2023-03-20T06:28:47.129Z,967.95
2023-03-20T06:29:47.358Z,967.97
2023-03-20T06:30:47.094Z,967.94
2023-03-20T06:31:47.011Z,967.98
2023-03-20T06:32:47.064Z,967.98
2023-03-20T06:33:47.080Z,967.96
2023-03-20T06:34:46.867Z,967.95
2023-03-20T06:35:47.195Z,967.99
2023-03-20T06:36:46.757Z,968.01
2023-03-20T06:37:46.712Z,967.98
2023-03-20T06:38:46.913Z,967.96
2023-03-20T06:39:46.777Z,967.98
2023-03-20T06:40:46.721Z,968.01
2023-03-20T06:41:46.546Z,968.03
2023-03-20T06:42:46.734Z,968.02
2023-03-20T06:43:46.447Z,968.03
2023-03-20T06:44:46.562Z,968.04
2023-03-20T06:45:46.430Z,968.06
2023-03-20T06:46:46.486Z,968.08
2023-03-20T06:47:46.291Z,968.04
2023-03-20T06:48:46.217Z,968.06
2023-03-20T06:49:46.253Z,968.06
2023-03-20T06:50:46.279Z,968.04
2023-03-20T06:51:46.337Z,968.06
2023-03-20T06:52:46.114Z,968.06
2023-03-20T06:53:46.006Z,968.09
2023-03-20T06:54:45.955Z,968.08
2023-03-20T06:55:45.934Z,968.09
2023-03-20T06:56:46.014Z,968.09
2023-03-20T06:57:45.858Z,968.08
2023-03-20T06:58:46.052Z,968.08
2023-03-20T06:59:45.729Z,968.01
2023-03-20T07:00:45.705Z,968.02
2023-03-20T07:01:45.733Z,968.01
2023-03-20T07:02:45.971Z,967.96
2023-03-20T07:03:45.558Z,967.98
2023-03-20T07:04:45.596Z,968.01
2023-03-20T07:05:45.470Z,968.03
2023-03-20T07:06:45.422Z,968.00
2023-03-20T07:07:45.705Z,968.03
2023-03-20T07:08:45.378Z,968.06
2023-03-20T07:09:45.523Z,968.04
2023-03-20T07:10:45.244Z,968.04
2023-03-20T07:11:45.322Z,968.02
2023-03-20T07:12:45.156Z,968.01
2023-03-20T07:13:46.173Z,968.01
2023-03-20T07:14:46.316Z,968.03
2023-03-20T07:16:03.030Z,967.98
2023-03-20T07:16:45.043Z,968.03
2023-03-20T07:17:44.964Z,967.99
2023-03-20T07:18:44.888Z,968.03
2023-03-20T07:19:45.990Z,968.03
2023-03-20T07:20:44.809Z,968.01
2023-03-20T07:21:44.800Z,968.00
2023-03-20T07:22:44.715Z,968.02
2023-03-20T07:23:44.669Z,967.98
2023-03-20T07:24:47.182Z,968.01
2023-03-20T07:25:45.093Z,968.03
2023-03-20T07:26:44.575Z,968.03
2023-03-20T07:27:44.616Z,968.03
2023-03-20T07:28:44.454Z,968.02
2023-03-20T07:29:44.401Z,967.98
2023-03-20T07:30:44.636Z,967.99
2023-03-20T07:31:44.423Z,968.00
2023-03-20T07:32:44.590Z,968.01
2023-03-20T07:33:44.222Z,968.03
2023-03-20T07:34:44.180Z,968.06
2023-03-20T07:35:44.218Z,968.02
2023-03-20T07:36:45.316Z,968.06
2023-03-20T07:37:44.041Z,968.03
2023-03-20T07:38:44.280Z,968.02
2023-03-20T07:39:43.984Z,967.99
2023-03-20T07:40:44.039Z,968.05
2023-03-20T07:41:43.866Z,968.04
2023-03-20T07:42:44.007Z,968.04
2023-03-20T07:43:44.795Z,968.05
2023-03-20T07:44:43.824Z,968.08
2023-03-20T07:45:43.753Z,968.08
2023-03-20T07:46:43.812Z,968.10
2023-03-20T07:47:44.760Z,968.12
2023-03-20T07:48:43.550Z,968.10
2023-03-20T07:49:43.649Z,968.08
2023-03-20T07:50:43.462Z,968.14
2023-03-20T07:51:43.444Z,968.14
2023-03-20T07:52:43.620Z,968.12
2023-03-20T07:53:43.464Z,968.15
2023-03-20T07:54:43.280Z,968.18
2023-03-20T07:55:43.490Z,968.19
2023-03-20T07:56:43.236Z,968.20
2023-03-20T07:57:43.155Z,968.20
2023-03-20T07:58:43.234Z,968.19
2023-03-20T07:59:43.194Z,968.19
2023-03-20T08:00:43.049Z,968.16
2023-03-20T08:01:43.127Z,968.17
2023-03-20T08:02:43.000Z,968.13
2023-03-20T08:03:43.014Z,968.17
2023-03-20T08:04:43.927Z,968.14
2023-03-20T08:05:44.079Z,968.19
2023-03-20T08:06:42.797Z,968.22
2023-03-20T08:07:42.842Z,968.23
2023-03-20T08:08:42.676Z,968.22
2023-03-20T08:09:42.764Z,968.22
2023-03-20T08:10:42.846Z,968.20
2023-03-20T08:11:42.686Z,968.24
2023-03-20T08:12:42.497Z,968.22
2023-03-20T08:13:42.591Z,968.24
2023-03-20T08:14:42.417Z,968.23
2023-03-20T08:15:42.382Z,968.31
2023-03-20T08:16:42.664Z,968.32
2023-03-20T08:17:42.279Z,968.34
2023-03-20T08:18:42.318Z,968.36
2023-03-20T08:19:42.190Z,968.41
2023-03-20T08:20:42.153Z,968.42
2023-03-20T08:21:42.304Z,968.40
2023-03-20T08:22:42.260Z,968.38
2023-03-20T08:23:42.126Z,968.42
2023-03-20T08:24:42.177Z,968.41
2023-03-20T08:25:41.925Z,968.41
2023-03-20T08:26:41.884Z,968.45
2023-03-20T08:27:41.940Z,968.46
2023-03-20T08:28:47.597Z,968.47
2023-03-20T08:29:41.774Z,968.52
2023-03-20T08:30:41.962Z,968.47
2023-03-20T08:31:41.665Z,968.46
2023-03-20T08:32:41.674Z,968.51
2023-03-20T08:33:41.725Z,968.44
2023-03-20T08:34:41.582Z,968.49
2023-03-20T08:35:49.728Z,968.48
2023-03-20T08:36:41.491Z,968.43
2023-03-20T08:37:49.484Z,968.43
2023-03-20T08:38:49.540Z,968.42
2023-03-20T08:39:51.069Z,968.42
2023-03-20T08:40:50.614Z,968.42
2023-03-20T08:41:41.369Z,968.43
2023-03-20T08:42:41.190Z,968.46
2023-03-20T08:43:41.183Z,968.46
2023-03-20T08:44:41.106Z,968.45
2023-03-20T08:45:42.477Z,968.45
2023-03-20T08:46:41.035Z,968.46
2023-03-20T08:47:41.254Z,968.49
2023-03-20T08:48:40.930Z,968.46
2023-03-20T08:49:40.906Z,968.44
2023-03-20T08:50:41.023Z,968.49
2023-03-20T08:51:40.824Z,968.47
2023-03-20T08:52:40.932Z,968.52
2023-03-20T08:53:40.788Z,968.51
2023-03-20T08:54:40.749Z,968.52
2023-03-20T08:55:40.637Z,968.49
2023-03-20T08:56:40.755Z,968.58
2023-03-20T08:57:40.557Z,968.59
2023-03-20T08:58:40.567Z,968.56
2023-03-20T08:59:40.465Z,968.54
2023-03-20T09:00:40.639Z,968.55
2023-03-20T09:01:49.234Z,968.62
2023-03-20T09:02:40.423Z,968.65
2023-03-20T09:03:41.427Z,968.59
2023-03-20T09:04:40.248Z,968.66
2023-03-20T09:05:40.413Z,968.68
2023-03-20T09:06:40.531Z,968.74
2023-03-20T09:07:40.337Z,968.77
2023-03-20T09:08:40.082Z,968.78
2023-03-20T09:09:40.131Z,968.86
2023-03-20T09:10:40.026Z,968.84
2023-03-20T09:11:40.179Z,968.82
2023-03-20T09:12:40.221Z,968.81
2023-03-20T09:13:39.963Z,968.77
2023-03-20T09:14:39.859Z,968.77
2023-03-20T09:15:40.108Z,968.76
2023-03-20T09:16:39.784Z,968.75
2023-03-20T09:17:39.887Z,968.72
2023-03-20T09:18:39.787Z,968.76
2023-03-20T09:19:39.806Z,968.74
2023-03-20T09:20:39.629Z,968.76
2023-03-20T09:21:39.916Z,968.74
2023-03-20T09:22:39.564Z,968.71
2023-03-20T09:23:39.772Z,968.72
2023-03-20T09:24:39.475Z,968.66
2023-03-20T09:25:39.539Z,968.65
2023-03-20T09:26:39.395Z,968.65
2023-03-20T09:27:39.547Z,968.69
2023-03-20T09:28:39.358Z,968.67
2023-03-20T09:29:39.362Z,968.68
2023-03-20T09:30:39.370Z,968.70
2023-03-20T09:31:39.420Z,968.69
2023-03-20T09:32:39.231Z,968.66
2023-03-20T09:33:40.449Z,968.69
2023-03-20T09:34:39.080Z,968.69
2023-03-20T09:35:39.205Z,968.69
2023-03-20T09:36:39.036Z,968.65
2023-03-20T09:37:39.015Z,968.69
2023-03-20T09:38:38.937Z,968.72
2023-03-20T09:39:39.035Z,968.66
2023-03-20T09:40:39.096Z,968.65
2023-03-20T09:41:53.255Z,968.62
2023-03-20T09:42:38.767Z,968.60
2023-03-20T09:43:38.959Z,968.57
2023-03-20T09:44:38.681Z,968.59
2023-03-20T09:45:38.978Z,968.55
2023-03-20T09:46:38.629Z,968.60
2023-03-20T09:47:38.571Z,968.59
2023-03-20T09:48:38.699Z,968.60
2023-03-20T09:49:38.490Z,968.60
2023-03-20T09:50:38.669Z,968.61
2023-03-20T09:51:38.563Z,968.59
2023-03-20T09:52:39.534Z,968.62
2023-03-20T09:53:38.318Z,968.64
2023-03-20T09:54:53.179Z,968.63
2023-03-20T09:55:38.503Z,968.64
2023-03-20T09:56:38.344Z,968.61
2023-03-20T09:57:38.203Z,968.64
2023-03-20T09:58:39.273Z,968.61
2023-03-20T09:59:38.072Z,968.60
2023-03-20T10:00:38.479Z,968.58
2023-03-20T10:01:39.776Z,968.56
2023-03-20T10:02:38.071Z,968.54
2023-03-20T10:03:38.132Z,968.54
2023-03-20T10:04:37.963Z,968.54
2023-03-20T10:05:38.168Z,968.61
2023-03-20T10:06:38.013Z,968.58
2023-03-20T10:07:37.747Z,968.63
2023-03-20T10:08:37.809Z,968.68
2023-03-20T10:09:37.706Z,968.66
2023-03-20T10:10:37.899Z,968.67
2023-03-20T10:11:37.606Z,968.71
2023-03-20T10:12:37.634Z,968.71
2023-03-20T10:13:37.504Z,968.70
2023-03-20T10:14:37.848Z,968.69
2023-03-20T10:15:37.444Z,968.66
2023-03-20T10:16:37.421Z,968.66
2023-03-20T10:17:38.384Z,968.61
2023-03-20T10:18:37.311Z,968.65
2023-03-20T10:19:37.372Z,968.63
2023-03-20T10:20:37.450Z,968.62
2023-03-20T10:21:37.395Z,968.63
2023-03-20T10:22:37.148Z,968.62
2023-03-20T10:23:37.209Z,968.64
2023-03-20T10:24:37.051Z,968.64
2023-03-20T10:25:37.423Z,968.66
2023-03-20T10:26:37.026Z,968.65
2023-03-20T10:27:39.582Z,968.67
2023-03-20T10:28:36.893Z,968.66
2023-03-20T10:29:36.933Z,968.71
2023-03-20T10:30:37.014Z,968.74
2023-03-20T10:31:36.976Z,968.80
2023-03-20T10:32:36.782Z,968.92
2023-03-20T10:33:37.991Z,968.85
2023-03-20T10:34:36.663Z,968.92
2023-03-20T10:35:36.795Z,968.98
2023-03-20T10:36:36.586Z,968.98
2023-03-20T10:37:36.783Z,968.96
2023-03-20T10:38:36.528Z,969.00
2023-03-20T10:39:36.667Z,969.01
2023-03-20T10:40:36.832Z,969.00
2023-03-20T10:41:36.453Z,969.01
2023-03-20T10:42:36.619Z,968.93
2023-03-20T10:43:39.831Z,968.90
2023-03-20T10:44:36.533Z,968.91
2023-03-20T10:45:36.269Z,968.92
2023-03-20T10:46:36.389Z,968.88
2023-03-20T10:47:36.465Z,968.98
2023-03-20T10:48:36.353Z,968.94
2023-03-20T10:49:36.149Z,968.92
2023-03-20T10:50:37.426Z,968.95
2023-03-20T10:51:36.086Z,968.97
2023-03-20T10:52:36.211Z,968.94
2023-03-20T10:53:36.003Z,968.95
2023-03-20T10:54:36.255Z,968.91
2023-03-20T10:55:35.965Z,969.00
2023-03-20T10:56:36.090Z,969.01
2023-03-20T10:57:35.904Z,968.90
2023-03-20T10:58:36.036Z,968.81
2023-03-20T10:59:35.849Z,968.83
2023-03-20T11:00:36.094Z,968.88
2023-03-20T11:01:36.096Z,968.83
2023-03-20T11:02:35.709Z,968.86
2023-03-20T11:05:26.173Z,968.90
2023-03-20T11:06:23.218Z,968.90
2023-03-20T11:07:24.249Z,968.97
2023-03-20T11:08:22.796Z,968.98
2023-03-20T11:10:53.123Z,968.86
2023-03-20T11:12:01.196Z,968.81
2023-03-20T11:13:02.710Z,968.83
2023-03-20T11:14:02.733Z,968.74
2023-03-20T11:15:02.882Z,968.74
2023-03-20T11:15:51.597Z,968.78
2023-03-20T11:16:59.321Z,968.77
2023-03-20T11:18:00.350Z,968.79
2023-03-20T11:18:59.393Z,968.77
2023-03-20T11:20:00.426Z,968.82
2023-03-20T11:21:13.670Z,968.79
2023-03-20T11:21:51.403Z,968.80
2023-03-20T11:22:51.570Z,968.81
2023-03-20T11:23:51.391Z,968.79
2023-03-20T11:24:51.370Z,968.84
2023-03-20T11:25:51.284Z,968.80
2023-03-20T11:26:51.258Z,968.77
2023-03-20T11:27:51.230Z,968.82
2023-03-20T11:28:51.399Z,968.80
2023-03-20T11:29:51.465Z,968.80
2023-03-20T11:31:04.030Z,968.84
2023-03-20T11:31:51.098Z,968.88
2023-03-20T11:32:51.133Z,968.86
2023-03-20T11:33:51.026Z,968.85
2023-03-20T11:34:51.040Z,968.84
2023-03-20T11:35:50.975Z,968.77
2023-03-20T11:37:02.652Z,968.81
2023-03-20T11:37:50.881Z,968.78
2023-03-20T11:38:50.859Z,968.79
2023-03-20T11:39:50.810Z,968.77
2023-03-20T11:40:50.999Z,968.77
2023-03-20T11:41:50.831Z,968.77
2023-03-20T11:42:50.782Z,968.76
2023-03-20T11:43:50.662Z,968.73
2023-03-20T11:44:50.631Z,968.73
2023-03-20T11:45:50.691Z,968.72
2023-03-20T11:46:50.810Z,968.70
2023-03-20T11:47:50.520Z,968.70
2023-03-20T11:48:50.725Z,968.66
2023-03-20T11:49:50.650Z,968.66
2023-03-20T11:50:50.412Z,968.66
2023-03-20T11:51:50.369Z,968.60
2023-03-20T11:52:50.563Z,968.65
2023-03-20T11:53:50.304Z,968.64
2023-03-20T11:54:50.363Z,968.59
2023-03-20T11:55:50.255Z,968.57
2023-03-20T11:56:50.196Z,968.61
2023-03-20T11:57:50.156Z,968.61
2023-03-20T11:58:50.389Z,968.59
2023-03-20T11:59:50.445Z,968.60
2023-03-20T12:00:50.198Z,968.58
2023-03-20T12:01:50.036Z,968.58
2023-03-20T12:02:50.168Z,968.61
2023-03-20T12:03:50.173Z,968.57
2023-03-20T12:04:49.902Z,968.58
2023-03-20T12:05:50.146Z,968.57
2023-03-20T12:06:49.835Z,968.52
2023-03-20T12:07:49.946Z,968.50
2023-03-20T12:08:49.766Z,968.51
2023-03-20T12:09:49.965Z,968.50
2023-03-20T12:10:49.682Z,968.47
2023-03-20T12:11:50.117Z,968.45
2023-03-20T12:12:49.603Z,968.44
2023-03-20T12:13:49.893Z,968.45
2023-03-20T12:14:50.777Z,968.48
2023-03-20T12:15:49.731Z,968.46
2023-03-20T12:16:49.460Z,968.46
2023-03-20T12:17:49.531Z,968.45
2023-03-20T12:18:49.381Z,968.44
2023-03-20T12:19:49.429Z,968.44
2023-03-20T12:20:49.352Z,968.37
2023-03-20T12:21:50.467Z,968.36
2023-03-20T12:22:49.224Z,968.39
2023-03-20T12:23:49.519Z,968.36
2023-03-20T12:24:49.158Z,968.37
2023-03-20T12:25:49.378Z,968.38
2023-03-20T12:26:49.223Z,968.38
2023-03-20T12:27:49.197Z,968.34
2023-03-20T12:28:48.984Z,968.38
2023-03-20T12:29:49.198Z,968.36
2023-03-20T12:30:48.933Z,968.37
2023-03-20T12:31:48.909Z,968.37
2023-03-20T12:32:48.891Z,968.34
2023-03-20T12:33:49.017Z,968.36
2023-03-20T12:34:48.778Z,968.34
2023-03-20T12:35:48.842Z,968.31
2023-03-20T12:36:48.691Z,968.30